createdAt,value
2019-04-10T00:00:35.087Z,16.42
2019-04-10T00:03:04.116Z,14.55
2019-04-10T00:05:32.566Z,14.43
2019-04-10T00:08:01.864Z,13.45
2019-04-10T00:10:30.418Z,14.90
2019-04-10T00:12:58.768Z,16.10
2019-04-10T00:15:27.074Z,16.27
2019-04-10T00:17:55.680Z,11.53
2019-04-10T00:20:24.592Z,14.80
2019-04-10T00:22:52.854Z,14.58
2019-04-10T00:25:21.156Z,16.82
2019-04-10T00:27:50.700Z,15.70
2019-04-10T00:30:19.337Z,13.88
2019-04-10T00:32:48.082Z,15.98
2019-04-10T00:35:16.452Z,14.95
2019-04-10T00:37:44.995Z,16.70
2019-04-10T00:40:13.498Z,15.78
2019-04-10T00:42:41.818Z,16.77
2019-04-10T00:45:11.260Z,17.80
2019-04-10T00:47:39.704Z,15.68
2019-04-10T00:50:08.496Z,16.52
2019-04-10T00:52:37.180Z,16.02
2019-04-10T00:55:06.041Z,17.75
2019-04-10T00:57:34.366Z,13.20
2019-04-10T01:00:02.675Z,12.80
2019-04-10T01:02:30.991Z,14.55
2019-04-10T01:04:59.292Z,14.40
2019-04-10T01:07:36.511Z,13.43
2019-04-10T01:09:57.715Z,14.10
2019-04-10T01:12:26.281Z,15.47
2019-04-10T01:14:54.595Z,15.35
2019-04-10T01:17:22.907Z,17.57
2019-04-10T01:19:52.265Z,18.00
2019-04-10T01:22:21.232Z,17.10
2019-04-10T01:24:50.204Z,16.47
2019-04-10T01:27:18.588Z,13.90
2019-04-10T01:29:46.913Z,18.50
2019-04-10T01:32:15.445Z,16.05
2019-04-10T01:34:43.781Z,16.35
2019-04-10T01:37:12.419Z,19.27
2019-04-10T01:39:40.675Z,15.30
2019-04-10T01:42:08.993Z,17.37
2019-04-10T01:44:37.308Z,14.60
2019-04-10T01:47:06.683Z,16.73
2019-04-10T01:49:35.008Z,14.43
2019-04-10T01:52:03.335Z,17.17
2019-04-10T01:54:31.658Z,17.45
2019-04-10T01:56:59.976Z,18.67
2019-04-10T01:59:30.381Z,16.52
2019-04-10T02:02:00.994Z,17.70
2019-04-10T02:04:29.329Z,17.25
2019-04-10T02:06:58.001Z,16.00
2019-04-10T02:09:27.525Z,17.90
2019-04-10T02:11:56.514Z,15.38
2019-04-10T02:14:25.165Z,16.82
2019-04-10T02:16:54.906Z,17.10
2019-04-10T02:19:23.874Z,15.93
2019-04-10T02:21:52.282Z,20.17
2019-04-10T02:24:20.612Z,15.90
2019-04-10T02:26:49.842Z,20.48
2019-04-10T02:29:18.077Z,17.73
2019-04-10T02:31:48.338Z,16.85
2019-04-10T02:34:17.300Z,19.07
2019-04-10T02:36:47.423Z,17.67
2019-04-10T02:39:25.601Z,16.48
2019-04-10T02:41:47.604Z,16.00
2019-04-10T02:44:16.436Z,15.72
2019-04-10T02:46:45.189Z,17.80
2019-04-10T02:49:14.322Z,17.70
2019-04-10T02:51:43.290Z,15.65
2019-04-10T02:54:13.596Z,17.40
2019-04-10T02:56:43.238Z,18.67
2019-04-10T02:59:13.143Z,16.15
2019-04-10T03:01:41.730Z,17.62
2019-04-10T03:04:11.873Z,15.40
2019-04-10T03:06:40.021Z,15.68
2019-04-10T03:09:28.171Z,17.02
2019-04-10T03:11:39.673Z,14.80
2019-04-10T03:14:08.140Z,14.23
2019-04-10T03:16:37.514Z,13.53
2019-04-10T03:19:05.914Z,12.90
2019-04-10T03:21:35.353Z,15.60
2019-04-10T03:24:04.297Z,14.83
2019-04-10T03:26:32.648Z,13.60
2019-04-10T03:29:01.008Z,15.95
2019-04-10T03:31:30.137Z,15.65
2019-04-10T03:34:13.254Z,14.15
2019-04-10T03:36:41.862Z,17.87
2019-04-10T03:39:10.627Z,14.03
2019-04-10T03:41:40.156Z,12.40
2019-04-10T03:44:08.417Z,13.70
2019-04-10T03:46:38.737Z,18.85
2019-04-10T03:49:07.074Z,12.55
2019-04-10T03:51:35.399Z,14.30
2019-04-10T03:54:04.731Z,13.58
2019-04-10T03:56:33.962Z,16.50
2019-04-10T03:59:02.382Z,12.75
2019-04-10T04:01:31.923Z,13.65
2019-04-10T04:04:01.391Z,15.25
2019-04-10T04:06:29.863Z,16.27
2019-04-10T04:09:06.649Z,12.60
2019-04-10T04:11:29.331Z,18.20
2019-04-10T04:13:57.788Z,12.63
2019-04-10T04:16:26.871Z,12.13
2019-04-10T04:18:55.227Z,13.40
2019-04-10T04:21:23.762Z,13.60
2019-04-10T04:23:53.269Z,14.65
2019-04-10T04:26:23.174Z,13.10
2019-04-10T04:28:51.775Z,11.95
2019-04-10T04:31:20.250Z,12.68
2019-04-10T04:33:48.971Z,13.05
2019-04-10T04:36:18.252Z,13.55
2019-04-10T04:38:46.663Z,12.88
2019-04-10T04:41:15.430Z,10.30
2019-04-10T04:43:45.988Z,14.70
2019-04-10T04:46:14.119Z,11.22
2019-04-10T04:48:43.329Z,14.00
2019-04-10T04:51:11.737Z,14.23
2019-04-10T04:53:40.045Z,12.98
2019-04-10T04:56:09.409Z,11.00
2019-04-10T04:58:38.175Z,11.90
2019-04-10T05:01:06.584Z,11.68
2019-04-10T05:03:35.423Z,11.47
2019-04-10T05:06:03.880Z,13.20
2019-04-10T05:08:32.388Z,10.60
2019-04-10T05:11:00.697Z,10.58
2019-04-10T05:13:28.996Z,11.68
2019-04-10T05:15:57.647Z,9.63
2019-04-10T05:18:25.953Z,12.00
2019-04-10T05:20:54.734Z,8.95
2019-04-10T05:23:23.131Z,10.45
2019-04-10T05:25:51.937Z,11.80
2019-04-10T05:28:20.560Z,12.50
2019-04-10T05:30:48.847Z,12.78
2019-04-10T05:33:17.264Z,15.58
2019-04-10T05:35:45.584Z,10.13
2019-04-10T05:38:14.531Z,12.03
2019-04-10T05:40:44.180Z,10.08
2019-04-10T05:43:13.446Z,11.10
2019-04-10T05:45:42.240Z,10.15
2019-04-10T05:48:11.107Z,12.60
2019-04-10T05:50:39.877Z,8.90
2019-04-10T05:53:08.546Z,10.43
2019-04-10T05:55:36.914Z,11.15
2019-04-10T05:58:05.500Z,10.68
2019-04-10T06:00:34.579Z,10.28
2019-04-10T06:03:03.945Z,9.90
2019-04-10T06:05:32.676Z,7.78
2019-04-10T06:08:01.348Z,8.55
2019-04-10T06:10:30.141Z,11.10
2019-04-10T06:12:59.185Z,12.07
2019-04-10T06:15:28.723Z,11.00
2019-04-10T06:17:57.037Z,11.95
2019-04-10T06:20:25.607Z,7.90
2019-04-10T06:22:54.905Z,12.65
2019-04-10T06:25:24.691Z,9.38
2019-04-10T06:27:53.351Z,15.45
2019-04-10T06:30:21.716Z,8.47
2019-04-10T06:32:50.012Z,11.35
2019-04-10T06:35:19.695Z,10.60
2019-04-10T06:37:48.406Z,10.65
2019-04-10T06:40:21.103Z,10.10
2019-04-10T06:42:50.801Z,10.93
2019-04-10T06:45:17.781Z,10.53
2019-04-10T06:47:46.650Z,9.30
2019-04-10T06:50:15.336Z,10.25
2019-04-10T06:52:43.633Z,9.45
2019-04-10T06:55:13.222Z,9.75
2019-04-10T06:57:50.928Z,8.77
2019-04-10T07:00:15.241Z,10.45
2019-04-10T07:02:44.361Z,8.50
2019-04-10T07:05:13.864Z,10.47
2019-04-10T07:07:51.361Z,10.73
2019-04-10T07:10:22.536Z,13.90
2019-04-10T07:12:43.881Z,10.00
2019-04-10T07:15:12.528Z,11.85
2019-04-10T07:17:41.869Z,10.90
2019-04-10T07:20:11.005Z,11.33
2019-04-10T07:22:45.161Z,8.65
2019-04-10T07:25:12.462Z,11.55
2019-04-10T07:27:41.442Z,9.80
2019-04-10T07:30:10.161Z,10.13
2019-04-10T07:32:41.284Z,12.00
2019-04-10T07:35:10.916Z,9.63
2019-04-10T07:37:40.381Z,14.27
2019-04-10T07:40:08.899Z,10.13
2019-04-10T07:42:40.279Z,10.90
2019-04-10T07:45:09.467Z,10.70
2019-04-10T07:47:38.149Z,13.88
2019-04-10T07:50:08.795Z,11.53
2019-04-10T07:52:37.400Z,12.70
2019-04-10T07:55:06.610Z,12.10
2019-04-10T07:57:36.270Z,13.38
2019-04-10T08:00:07.355Z,13.80
2019-04-10T08:02:35.935Z,13.55
2019-04-10T08:05:05.782Z,13.98
2019-04-10T08:07:36.320Z,11.90
2019-04-10T08:10:06.253Z,13.48
2019-04-10T08:12:42.441Z,14.68
2019-04-10T08:15:06.971Z,12.60
2019-04-10T08:17:36.734Z,11.85
2019-04-10T08:20:05.924Z,16.17
2019-04-10T08:22:34.983Z,15.80
2019-04-10T08:25:04.653Z,13.18
2019-04-10T08:27:34.126Z,17.60
2019-04-10T08:30:03.318Z,15.05
2019-04-10T08:32:32.227Z,15.68
2019-04-10T08:35:01.659Z,14.83
2019-04-10T08:37:29.972Z,17.02
2019-04-10T08:39:59.045Z,16.42
2019-04-10T08:42:27.340Z,14.30
2019-04-10T08:44:56.370Z,13.65
2019-04-10T08:47:24.933Z,17.70
2019-04-10T08:49:53.216Z,15.97
2019-04-10T08:52:22.089Z,18.48
2019-04-10T08:54:51.210Z,17.73
2019-04-10T08:57:19.832Z,16.10
2019-04-10T08:59:48.413Z,17.02
2019-04-10T09:02:18.005Z,16.10
2019-04-10T09:04:46.812Z,15.20
2019-04-10T09:07:15.861Z,20.17
2019-04-10T09:09:44.199Z,16.47
2019-04-10T09:12:13.603Z,15.93
2019-04-10T09:14:41.969Z,16.70
2019-04-10T09:17:11.204Z,16.90
2019-04-10T09:19:40.244Z,20.08
2019-04-10T09:22:08.674Z,14.65
2019-04-10T09:24:37.003Z,19.00
2019-04-10T09:27:05.696Z,15.53
2019-04-10T09:29:34.030Z,17.07
2019-04-10T09:32:02.550Z,13.68
2019-04-10T09:34:31.821Z,15.03
2019-04-10T09:37:00.150Z,17.57
2019-04-10T09:39:29.520Z,15.90
2019-04-10T09:41:58.735Z,16.48
2019-04-10T09:44:27.822Z,17.15
2019-04-10T09:46:56.511Z,15.70
2019-04-10T09:49:33.803Z,19.70
2019-04-10T09:51:54.866Z,16.57
2019-04-10T09:54:23.997Z,15.23
2019-04-10T09:56:52.831Z,18.05
2019-04-10T09:59:31.318Z,15.08
2019-04-10T10:01:51.432Z,21.20
2019-04-10T10:04:19.755Z,16.27
2019-04-10T10:06:48.075Z,15.08
2019-04-10T10:09:17.545Z,15.98
2019-04-10T10:11:46.922Z,19.52
2019-04-10T10:14:15.278Z,18.10
2019-04-10T10:16:44.219Z,17.40
2019-04-10T10:19:12.663Z,16.90
2019-04-10T10:21:40.980Z,15.85
2019-04-10T10:24:09.266Z,17.25
2019-04-10T10:26:37.924Z,18.90
2019-04-10T10:29:06.650Z,16.63
2019-04-10T10:31:36.076Z,18.98
2019-04-10T10:34:04.397Z,18.67
2019-04-10T10:36:39.553Z,16.90
2019-04-10T10:39:10.596Z,17.10
2019-04-10T10:41:34.748Z,16.37
2019-04-10T10:44:03.134Z,16.40
2019-04-10T10:46:31.689Z,17.87
2019-04-10T10:49:00.132Z,22.37
2019-04-10T10:51:28.968Z,19.17
2019-04-10T10:54:00.102Z,18.30
2019-04-10T10:56:28.627Z,18.65
2019-04-10T10:58:58.916Z,17.80
2019-04-10T11:01:27.590Z,18.20
2019-04-10T11:03:56.362Z,16.85
2019-04-10T11:06:24.810Z,18.02
2019-04-10T11:08:53.748Z,20.45
2019-04-10T11:11:22.578Z,16.67
2019-04-10T11:13:50.983Z,18.48
2019-04-10T11:16:19.402Z,17.87
2019-04-10T11:18:48.441Z,16.80
2019-04-10T11:21:16.933Z,19.65
2019-04-10T11:23:45.250Z,23.87
2019-04-10T11:26:20.017Z,18.93
2019-04-10T11:28:45.608Z,18.15
2019-04-10T11:31:15.902Z,19.77
2019-04-10T11:33:49.807Z,24.20
2019-04-10T11:36:15.220Z,17.98
2019-04-10T11:38:45.348Z,16.80
2019-04-10T11:41:14.994Z,19.07
2019-04-10T11:43:44.605Z,19.30
2019-04-10T11:46:13.700Z,20.82
2019-04-10T11:48:45.429Z,18.35
2019-04-10T11:56:12.657Z,19.77
2019-04-10T11:58:49.482Z,16.47
2019-04-10T12:01:12.905Z,19.17
2019-04-10T12:03:46.993Z,21.10
2019-04-10T12:06:13.173Z,20.32
2019-04-10T12:11:15.520Z,21.13
2019-04-10T12:13:42.731Z,19.50
2019-04-10T12:16:11.138Z,18.47
2019-04-10T12:18:40.485Z,19.77
2019-04-10T12:21:09.441Z,17.27
2019-04-10T12:23:38.142Z,18.45
2019-04-10T12:26:07.511Z,17.10
2019-04-10T12:28:36.140Z,20.95
2019-04-10T12:31:05.904Z,17.48
2019-04-10T12:33:34.290Z,16.15
2019-04-10T12:36:02.663Z,15.68
2019-04-10T12:38:31.885Z,18.73
2019-04-10T12:41:01.351Z,18.25
2019-04-10T12:43:29.808Z,18.60
2019-04-10T12:45:58.110Z,19.95
2019-04-10T12:48:26.444Z,16.87
2019-04-10T12:50:55.159Z,17.20
2019-04-10T12:53:23.635Z,18.25
2019-04-10T12:55:51.941Z,16.70
2019-04-10T12:58:20.694Z,21.25
2019-04-10T13:00:50.594Z,15.90
2019-04-10T13:03:18.952Z,17.97
2019-04-10T13:05:47.330Z,17.17
2019-04-10T13:08:21.872Z,17.35
2019-04-10T13:10:47.614Z,18.02
2019-04-10T13:13:16.311Z,15.53
2019-04-10T13:15:45.573Z,17.05
2019-04-10T13:18:14.337Z,16.85
2019-04-10T13:20:42.649Z,15.58
2019-04-10T13:23:10.965Z,14.60
2019-04-10T13:25:39.283Z,12.55
2019-04-10T13:28:08.733Z,14.43
2019-04-10T13:30:46.804Z,15.85
2019-04-10T13:33:08.691Z,15.08
2019-04-10T13:35:37.876Z,16.42
2019-04-10T13:38:06.767Z,13.43
2019-04-10T13:40:35.320Z,16.70
2019-04-10T13:43:03.794Z,13.15
2019-04-10T13:45:32.276Z,15.10
2019-04-10T13:48:00.933Z,16.07
2019-04-10T13:50:29.252Z,13.93
2019-04-10T13:52:57.598Z,14.65
2019-04-10T13:55:26.365Z,13.05
2019-04-10T13:57:55.043Z,14.53
2019-04-10T14:00:43.083Z,16.70
2019-04-10T14:03:12.262Z,14.25
2019-04-10T14:05:41.233Z,19.48
2019-04-10T14:08:10.469Z,17.50
2019-04-10T14:10:41.195Z,15.32
2019-04-10T14:13:09.401Z,18.05
2019-04-10T14:15:37.714Z,14.43
2019-04-10T14:18:08.244Z,14.80
2019-04-10T14:20:37.566Z,12.33
2019-04-10T14:23:08.438Z,20.00
2019-04-10T14:25:42.088Z,14.45
2019-04-10T14:28:11.032Z,13.48
2019-04-10T14:30:45.283Z,12.63
2019-04-10T14:33:14.889Z,13.43
2019-04-10T14:35:43.237Z,15.25
2019-04-10T14:38:11.631Z,14.78
2019-04-10T14:40:40.217Z,11.60
2019-04-10T14:43:08.605Z,11.73
2019-04-10T14:45:37.429Z,13.78
2019-04-10T14:48:05.987Z,15.98
2019-04-10T14:50:34.719Z,11.88
2019-04-10T14:53:03.514Z,15.08
2019-04-10T14:55:31.973Z,13.03
2019-04-10T14:58:01.347Z,13.10
2019-04-10T15:00:31.321Z,13.63
2019-04-10T15:03:00.133Z,10.25
2019-04-10T15:05:28.551Z,13.28
2019-04-10T15:07:57.516Z,12.00
2019-04-10T15:10:25.851Z,14.50
2019-04-10T15:13:02.544Z,11.83
2019-04-10T15:15:24.482Z,17.07
2019-04-10T15:17:54.062Z,12.82
2019-04-10T15:20:22.859Z,15.78
2019-04-10T15:22:51.307Z,12.45
2019-04-10T15:25:19.606Z,14.67
2019-04-10T15:27:47.926Z,11.63
2019-04-10T15:30:16.295Z,11.95
2019-04-10T15:32:45.405Z,12.07
2019-04-10T15:35:14.270Z,11.50
2019-04-10T15:37:42.582Z,14.93
2019-04-10T15:40:18.467Z,11.30
2019-04-10T15:42:41.057Z,12.87
2019-04-10T15:45:10.610Z,13.15
2019-04-10T15:47:49.244Z,12.05
2019-04-10T15:50:10.276Z,12.58
2019-04-10T15:52:39.681Z,13.53
2019-04-10T15:55:08.263Z,12.90
2019-04-10T15:57:46.997Z,10.78
2019-04-10T16:00:10.779Z,13.93
2019-04-10T16:02:39.103Z,9.30
2019-04-10T16:05:09.041Z,10.45
2019-04-10T16:07:38.285Z,10.80
2019-04-10T16:10:28.874Z,9.00
2019-04-10T16:13:04.605Z,8.47
2019-04-10T16:15:40.827Z,8.83
2019-04-10T16:18:13.672Z,12.63
2019-04-10T16:20:43.226Z,8.98
2019-04-10T16:23:28.323Z,10.40
2019-04-10T16:25:55.357Z,9.80
2019-04-10T16:28:23.848Z,8.33
2019-04-10T16:30:52.245Z,10.48
2019-04-10T16:33:21.103Z,10.70
2019-04-10T16:35:49.384Z,8.23
2019-04-10T16:38:17.688Z,9.13
2019-04-10T16:40:46.075Z,10.35
2019-04-10T16:43:14.453Z,9.55
2019-04-10T16:45:43.189Z,11.07
2019-04-10T16:48:11.584Z,9.65
2019-04-10T16:50:39.869Z,10.03
2019-04-10T16:53:08.180Z,9.90
2019-04-10T16:55:36.703Z,9.48
2019-04-10T16:58:05.392Z,8.88
2019-04-10T17:00:34.076Z,9.28
2019-04-10T17:03:02.670Z,11.12
2019-04-10T17:05:33.600Z,11.60
2019-04-10T17:08:01.004Z,13.22
2019-04-10T17:10:29.565Z,11.57
2019-04-10T17:12:58.292Z,10.27
2019-04-10T17:15:28.056Z,9.25
2019-04-10T17:17:56.933Z,9.28
2019-04-10T17:20:26.657Z,8.83
2019-04-10T17:22:56.350Z,9.95
2019-04-10T17:25:24.750Z,11.85
2019-04-10T17:27:54.130Z,10.73
2019-04-10T17:30:23.951Z,10.18
2019-04-10T17:32:52.552Z,12.05
2019-04-10T17:35:21.325Z,8.90
2019-04-10T17:37:50.036Z,10.40
2019-04-10T17:40:30.061Z,10.93
2019-04-10T17:42:48.899Z,9.85
2019-04-10T17:45:18.424Z,11.75
2019-04-10T17:47:47.209Z,9.63
2019-04-10T17:50:16.446Z,9.70
2019-04-10T17:52:45.209Z,10.13
2019-04-10T17:55:13.607Z,9.90
2019-04-10T17:57:44.619Z,8.65
2019-04-10T18:00:22.984Z,8.98
2019-04-10T18:02:51.407Z,12.23
2019-04-10T18:05:20.366Z,11.27
2019-04-10T18:07:48.788Z,10.48
2019-04-10T18:10:17.166Z,11.20
2019-04-10T18:12:46.104Z,13.70
2019-04-10T18:15:15.684Z,12.23
2019-04-10T18:17:44.051Z,12.10
2019-04-10T18:20:12.380Z,10.40
2019-04-10T18:22:40.769Z,10.98
2019-04-10T18:25:09.699Z,9.30
2019-04-10T18:27:38.643Z,9.38
2019-04-10T18:30:07.877Z,11.80
2019-04-10T18:32:36.236Z,10.93
2019-04-10T18:35:06.774Z,8.75
2019-04-10T18:37:35.398Z,9.68
2019-04-10T18:40:05.362Z,9.48
2019-04-10T18:42:33.659Z,8.53
2019-04-10T18:45:02.012Z,8.35
2019-04-10T18:47:32.395Z,10.32
2019-04-10T18:50:01.156Z,7.55
2019-04-10T18:52:30.300Z,7.75
2019-04-10T18:54:58.612Z,9.43
2019-04-10T18:57:26.916Z,7.30
2019-04-10T18:59:56.836Z,7.03
2019-04-10T19:02:30.427Z,8.90
2019-04-10T19:05:19.383Z,8.03
2019-04-10T19:07:48.214Z,8.55
2019-04-10T19:10:17.802Z,7.20
2019-04-10T19:12:46.570Z,7.60
2019-04-10T19:15:14.992Z,7.67
2019-04-10T19:17:43.564Z,6.65
2019-04-10T19:20:11.890Z,5.97
2019-04-10T19:22:40.276Z,5.93
2019-04-10T19:25:08.797Z,8.90
2019-04-10T19:27:37.334Z,7.62
2019-04-10T19:30:08.394Z,6.30
2019-04-10T19:32:37.515Z,7.55
2019-04-10T19:35:07.141Z,9.93
2019-04-10T19:37:36.630Z,6.70
2019-04-10T19:40:07.132Z,10.50
2019-04-10T19:42:35.740Z,7.87
2019-04-10T19:45:06.091Z,8.05
2019-04-10T19:47:34.728Z,8.03
2019-04-10T19:50:03.477Z,9.10
2019-04-10T19:52:32.837Z,7.90
2019-04-10T19:55:01.579Z,7.93
2019-04-10T19:57:31.022Z,6.83
2019-04-10T20:00:00.038Z,9.93
2019-04-10T20:02:28.368Z,9.43
2019-04-10T20:04:56.970Z,8.20
2019-04-10T20:07:25.570Z,15.43
2019-04-10T20:09:54.917Z,7.50
2019-04-10T20:12:24.457Z,8.00
2019-04-10T20:14:53.342Z,8.93
2019-04-10T20:17:22.007Z,8.85
2019-04-10T20:19:51.783Z,9.03
2019-04-10T20:22:20.921Z,8.25
2019-04-10T20:24:50.312Z,9.25
2019-04-10T20:27:20.223Z,8.33
2019-04-10T20:29:48.751Z,8.28
2019-04-10T20:32:17.693Z,8.68
2019-04-10T20:34:45.978Z,6.83
2019-04-10T20:37:14.520Z,11.35
2019-04-10T20:39:42.875Z,7.03
2019-04-10T20:42:11.177Z,8.23
2019-04-10T20:44:39.468Z,7.03
2019-04-10T20:47:08.801Z,6.45
2019-04-10T20:49:38.435Z,7.10
2019-04-10T20:52:06.803Z,9.00
2019-04-10T20:54:35.384Z,9.60
2019-04-10T20:57:04.963Z,7.60
2019-04-10T20:59:34.976Z,6.50
2019-04-10T21:02:04.171Z,7.60
2019-04-10T21:04:33.759Z,7.55
2019-04-10T21:07:02.929Z,8.70
2019-04-10T21:09:32.057Z,7.90
2019-04-10T21:12:08.054Z,9.30
2019-04-10T21:14:31.644Z,7.47
2019-04-10T21:17:00.450Z,6.70
2019-04-10T21:19:29.067Z,6.85
2019-04-10T21:21:57.565Z,6.30
2019-04-10T21:24:25.891Z,8.70
2019-04-10T21:26:54.843Z,7.28
2019-04-10T21:29:25.496Z,9.95
2019-04-10T21:31:59.019Z,7.10
2019-04-10T21:34:29.035Z,7.20
2019-04-10T21:36:57.599Z,6.35
2019-04-10T21:39:27.631Z,5.20
2019-04-10T21:42:09.333Z,8.40
2019-04-10T21:44:26.713Z,7.80
2019-04-10T21:46:55.142Z,5.55
2019-04-10T21:49:24.027Z,7.03
2019-04-10T21:51:52.351Z,8.68
2019-04-10T21:54:20.951Z,8.18
2019-04-10T21:56:49.437Z,7.80
2019-04-10T21:59:18.346Z,8.75
2019-04-10T22:01:48.669Z,5.87
2019-04-10T22:04:17.335Z,9.90
2019-04-10T22:06:50.001Z,7.25
2019-04-10T22:09:22.949Z,10.90
2019-04-10T22:11:55.425Z,5.90
2019-04-10T22:14:23.847Z,9.38
2019-04-10T22:16:52.590Z,6.85
2019-04-10T22:19:21.072Z,8.00
2019-04-10T22:21:50.203Z,8.25
2019-04-10T22:24:18.714Z,8.33
2019-04-10T22:26:47.019Z,14.40
2019-04-10T22:29:15.318Z,6.47
2019-04-10T22:31:43.841Z,7.80
2019-04-10T22:34:12.117Z,6.50
2019-04-10T22:36:41.468Z,8.40
2019-04-10T22:39:11.547Z,5.60
2019-04-10T22:41:40.697Z,5.62
2019-04-10T22:44:09.727Z,6.37
2019-04-10T22:46:38.410Z,6.42
2019-04-10T22:49:06.803Z,5.97
2019-04-10T22:51:35.573Z,10.57
2019-04-10T22:54:04.139Z,5.62
2019-04-10T22:56:33.665Z,5.78
2019-04-10T22:59:02.331Z,7.28
2019-04-10T23:01:31.325Z,6.42
2019-04-10T23:04:00.010Z,7.85
2019-04-10T23:06:29.272Z,9.55
2019-04-10T23:08:58.071Z,5.73
2019-04-10T23:11:31.683Z,7.70
2019-04-10T23:13:56.429Z,7.03
2019-04-10T23:16:24.743Z,6.53
2019-04-10T23:18:53.931Z,8.80
2019-04-10T23:21:22.863Z,7.00
2019-04-10T23:23:51.603Z,7.40
2019-04-10T23:26:20.774Z,7.07
2019-04-10T23:28:50.161Z,7.20
2019-04-10T23:31:18.845Z,6.53
2019-04-10T23:33:48.159Z,8.50
2019-04-10T23:36:16.650Z,5.72
2019-04-10T23:38:45.890Z,5.95
2019-04-10T23:41:14.264Z,7.75
2019-04-10T23:43:42.583Z,8.50
2019-04-10T23:46:11.781Z,7.22
2019-04-10T23:48:41.213Z,6.53
2019-04-10T23:51:10.584Z,9.73
2019-04-10T23:53:39.066Z,7.85
2019-04-10T23:56:07.356Z,6.80
2019-04-10T23:58:35.687Z,7.50
